Roslavl, Russia
Current Conditions -  °F | °C
As of 4:00 PM on Tuesday 21 Oct 2014 (Local Time) from UUBP Reporting Station
Broken Clouds Broken Clouds  
Wind Chill: 55°   Ceiling: 5600
Heat Index: 55°   Visibility: 6mi
Dew Point: 45°   Wind: 13mph
Humidity: 67%   Direction: 310°NW
Pressure: 29.47"   Gusts: 20mph
Location:  53.95°N, 32.86°E
Report Text: UUBP 211300Z 31006G09MPS 9999 BKN056CB 13/07 Q0998 NOSIG RMKQFE731 16290155
Loading
Personal Weather Stations






























Interactive Weather Map
Tropical Storm Tracking
New forecast layout! Learn more

10-Day Weather Forecast

Advertisements
Track Severe Weather on mobile